sensor_id;sensor_type;location;lat;lon;timestamp;pressure;altitude;pressure_sealevel;temperature;humidity
18533;BME280;9396;51.510;11.934;2023-10-08T00:01:38;100663.59;;;18.15;100.00
18533;BME280;9396;51.510;11.934;2023-10-08T00:04:08;100654.91;;;18.19;100.00
18533;BME280;9396;51.510;11.934;2023-10-08T00:06:36;100654.88;;;18.13;100.00
18533;BME280;9396;51.510;11.934;2023-10-08T00:09:03;100659.22;;;18.14;100.00
18533;BME280;9396;51.510;11.934;2023-10-08T00:11:34;100664.25;;;18.17;100.00
18533;BME280;9396;51.510;11.934;2023-10-08T00:14:03;100660.50;;;18.18;100.00
18533;BME280;9396;51.510;11.934;2023-10-08T00:16:30;100657.38;;;18.14;100.00
18533;BME280;9396;51.510;11.934;2023-10-08T00:18:59;100666.06;;;18.10;100.00
18533;BME280;9396;51.510;11.934;2023-10-08T00:21:28;100653.59;;;18.09;100.00
18533;BME280;9396;51.510;11.934;2023-10-08T00:23:58;100667.94;;;18.16;100.00
18533;BME280;9396;51.510;11.934;2023-10-08T00:26:25;100667.75;;;18.17;100.00
18533;BME280;9396;51.510;11.934;2023-10-08T00:28:55;100662.19;;;18.19;100.00
18533;BME280;9396;51.510;11.934;2023-10-08T00:31:23;100672.13;;;18.18;100.00
18533;BME280;9396;51.510;11.934;2023-10-08T00:33:52;100670.06;;;18.21;100.00
18533;BME280;9396;51.510;11.934;2023-10-08T00:36:19;100665.88;;;18.18;100.00
18533;BME280;9396;51.510;11.934;2023-10-08T00:38:46;100668.53;;;18.11;100.00
18533;BME280;9396;51.510;11.934;2023-10-08T00:41:16;100667.09;;;17.88;100.00
18533;BME280;9396;51.510;11.934;2023-10-08T00:43:47;100678.91;;;17.87;100.00
18533;BME280;9396;51.510;11.934;2023-10-08T00:46:15;100700.13;;;17.75;100.00
18533;BME280;9396;51.510;11.934;2023-10-08T00:48:50;100722.34;;;17.63;100.00
18533;BME280;9396;51.510;11.934;2023-10-08T00:51:19;100728.63;;;17.34;100.00
18533;BME280;9396;51.510;11.934;2023-10-08T00:54:00;100740.63;;;17.02;100.00
18533;BME280;9396;51.510;11.934;2023-10-08T00:56:32;100752.22;;;16.74;100.00
18533;BME280;9396;51.510;11.934;2023-10-08T00:59:15;100758.78;;;16.20;100.00
18533;BME280;9396;51.510;11.934;2023-10-08T01:01:43;100767.75;;;15.89;100.00
18533;BME280;9396;51.510;11.934;2023-10-08T01:04:18;100764.66;;;15.78;100.00
18533;BME280;9396;51.510;11.934;2023-10-08T01:06:49;100769.63;;;15.58;100.00
18533;BME280;9396;51.510;11.934;2023-10-08T01:09:20;100770.56;;;15.35;100.00
18533;BME280;9396;51.510;11.934;2023-10-08T01:12:09;100766.59;;;15.31;100.00
18533;BME280;9396;51.510;11.934;2023-10-08T01:14:37;100782.69;;;15.31;100.00
18533;BME280;9396;51.510;11.934;2023-10-08T01:17:07;100786.53;;;15.28;100.00
18533;BME280;9396;51.510;11.934;2023-10-08T01:19:36;100799.56;;;15.39;100.00
18533;BME280;9396;51.510;11.934;2023-10-08T01:22:09;100802.91;;;15.33;100.00
18533;BME280;9396;51.510;11.934;2023-10-08T01:24:42;100801.81;;;15.20;100.00
18533;BME280;9396;51.510;11.934;2023-10-08T01:27:09;100798.44;;;14.71;100.00
18533;BME280;9396;51.510;11.934;2023-10-08T01:29:37;100792.25;;;14.62;100.00
18533;BME280;9396;51.510;11.934;2023-10-08T01:32:04;100797.75;;;14.69;100.00
18533;BME280;9396;51.510;11.934;2023-10-08T01:34:36;100818.03;;;14.63;100.00
18533;BME280;9396;51.510;11.934;2023-10-08T01:37:04;100815.31;;;14.79;100.00
18533;BME280;9396;51.510;11.934;2023-10-08T01:39:36;100812.81;;;14.78;100.00
18533;BME280;9396;51.510;11.934;2023-10-08T01:42:05;100824.03;;;14.81;100.00
18533;BME280;9396;51.510;11.934;2023-10-08T01:44:40;100827.53;;;14.74;100.00
18533;BME280;9396;51.510;11.934;2023-10-08T01:47:07;100834.25;;;14.78;100.00
18533;BME280;9396;51.510;11.934;2023-10-08T01:49:36;100855.19;;;14.58;100.00
18533;BME280;9396;51.510;11.934;2023-10-08T01:52:05;100869.41;;;14.67;100.00
18533;BME280;9396;51.510;11.934;2023-10-08T01:54:39;100886.16;;;14.61;100.00
18533;BME280;9396;51.510;11.934;2023-10-08T01:57:06;100889.31;;;14.40;100.00
18533;BME280;9396;51.510;11.934;2023-10-08T01:59:35;100883.44;;;14.37;100.00
18533;BME280;9396;51.510;11.934;2023-10-08T02:02:03;100897.69;;;14.29;100.00
18533;BME280;9396;51.510;11.934;2023-10-08T02:04:31;100904.53;;;14.32;100.00
18533;BME280;9396;51.510;11.934;2023-10-08T02:07:00;100915.56;;;14.37;100.00
18533;BME280;9396;51.510;11.934;2023-10-08T02:09:29;100918.19;;;14.13;100.00
18533;BME280;9396;51.510;11.934;2023-10-08T02:11:57;100925.44;;;14.28;100.00
18533;BME280;9396;51.510;11.934;2023-10-08T02:14:23;100938.00;;;14.36;100.00
18533;BME280;9396;51.510;11.934;2023-10-08T02:16:50;100928.13;;;14.28;100.00
18533;BME280;9396;51.510;11.934;2023-10-08T02:19:21;100935.91;;;14.06;100.00
18533;BME280;9396;51.510;11.934;2023-10-08T02:21:52;100953.09;;;14.03;100.00
18533;BME280;9396;51.510;11.934;2023-10-08T02:24:20;100953.31;;;13.76;100.00
18533;BME280;9396;51.510;11.934;2023-10-08T02:26:50;100947.78;;;13.69;100.00
18533;BME280;9396;51.510;11.934;2023-10-08T02:29:18;100945.97;;;13.70;100.00
18533;BME280;9396;51.510;11.934;2023-10-08T02:31:45;100948.81;;;13.76;100.00
18533;BME280;9396;51.510;11.934;2023-10-08T02:34:13;100945.00;;;13.79;100.00
18533;BME280;9396;51.510;11.934;2023-10-08T02:36:40;100960.72;;;13.82;100.00
18533;BME280;9396;51.510;11.934;2023-10-08T02:39:07;100970.88;;;13.70;100.00
18533;BME280;9396;51.510;11.934;2023-10-08T02:41:41;100978.94;;;13.53;100.00
18533;BME280;9396;51.510;11.934;2023-10-08T02:44:11;100994.69;;;13.56;100.00
18533;BME280;9396;51.510;11.934;2023-10-08T02:46:41;100985.34;;;13.34;100.00
18533;BME280;9396;51.510;11.934;2023-10-08T02:49:10;100986.25;;;13.43;100.00
18533;BME280;9396;51.510;11.934;2023-10-08T02:51:44;100994.00;;;13.54;100.00
18533;BME280;9396;51.510;11.934;2023-10-08T02:54:11;100992.81;;;13.56;100.00
18533;BME280;9396;51.510;11.934;2023-10-08T02:56:43;100997.03;;;13.59;100.00
18533;BME280;9396;51.510;11.934;2023-10-08T02:59:11;101012.00;;;13.44;100.00
18533;BME280;9396;51.510;11.934;2023-10-08T03:01:40;100993.56;;;13.41;100.00
18533;BME280;9396;51.510;11.934;2023-10-08T03:04:07;101007.69;;;13.51;100.00
18533;BME280;9396;51.510;11.934;2023-10-08T03:06:42;101017.94;;;13.38;100.00
18533;BME280;9396;51.510;11.934;2023-10-08T03:09:09;101022.06;;;13.32;100.00
18533;BME280;9396;51.510;11.934;2023-10-08T03:11:39;101035.00;;;13.19;100.00
18533;BME280;9396;51.510;11.934;2023-10-08T03:14:11;101027.06;;;13.27;100.00
18533;BME280;9396;51.510;11.934;2023-10-08T03:16:41;101019.94;;;13.36;100.00
18533;BME280;9396;51.510;11.934;2023-10-08T03:19:13;101024.03;;;13.22;100.00
18533;BME280;9396;51.510;11.934;2023-10-08T03:21:44;101027.59;;;13.31;100.00
18533;BME280;9396;51.510;11.934;2023-10-08T03:24:16;101034.34;;;13.43;100.00
18533;BME280;9396;51.510;11.934;2023-10-08T03:27:05;101040.94;;;13.31;100.00
18533;BME280;9396;51.510;11.934;2023-10-08T03:29:33;101053.38;;;13.40;100.00
18533;BME280;9396;51.510;11.934;2023-10-08T03:32:07;101052.13;;;13.52;100.00
18533;BME280;9396;51.510;11.934;2023-10-08T03:34:38;101050.63;;;13.32;100.00
18533;BME280;9396;51.510;11.934;2023-10-08T03:37:08;101046.59;;;13.28;100.00
18533;BME280;9396;51.510;11.934;2023-10-08T03:39:37;101039.81;;;13.16;100.00
18533;BME280;9396;51.510;11.934;2023-10-08T03:42:20;101031.19;;;13.22;100.00
18533;BME280;9396;51.510;11.934;2023-10-08T03:44:47;101030.66;;;13.18;100.00
18533;BME280;9396;51.510;11.934;2023-10-08T03:47:18;101036.41;;;13.06;100.00
18533;BME280;9396;51.510;11.934;2023-10-08T03:49:47;101028.53;;;13.04;100.00
18533;BME280;9396;51.510;11.934;2023-10-08T03:52:16;101025.88;;;13.04;100.00
18533;BME280;9396;51.510;11.934;2023-10-08T03:54:42;101015.47;;;13.19;100.00
18533;BME280;9396;51.510;11.934;2023-10-08T03:57:14;101027.25;;;13.34;100.00
18533;BME280;9396;51.510;11.934;2023-10-08T03:59:43;101045.31;;;13.14;100.00
18533;BME280;9396;51.510;11.934;2023-10-08T04:02:13;101049.50;;;13.17;100.00
18533;BME280;9396;51.510;11.934;2023-10-08T04:04:42;101053.84;;;13.00;100.00
18533;BME280;9396;51.510;11.934;2023-10-08T04:07:22;101064.06;;;12.87;100.00
18533;BME280;9396;51.510;11.934;2023-10-08T04:10:07;101071.69;;;13.00;100.00
18533;BME280;9396;51.510;11.934;2023-10-08T04:12:48;101073.22;;;12.84;100.00
18533;BME280;9396;51.510;11.934;2023-10-08T04:15:17;101083.81;;;12.94;100.00
18533;BME280;9396;51.510;11.934;2023-10-08T04:17:45;101089.72;;;12.98;100.00
18533;BME280;9396;51.510;11.934;2023-10-08T04:20:17;101099.38;;;13.08;100.00
18533;BME280;9396;51.510;11.934;2023-10-08T04:22:58;101097.03;;;12.96;100.00
18533;BME280;9396;51.510;11.934;2023-10-08T04:25:26;101078.34;;;12.96;100.00
18533;BME280;9396;51.510;11.934;2023-10-08T04:27:54;101074.09;;;13.03;100.00
18533;BME280;9396;51.510;11.934;2023-10-08T04:30:24;101093.44;;;12.87;100.00
18533;BME280;9396;51.510;11.934;2023-10-08T04:32:57;101108.63;;;12.86;100.00
18533;BME280;9396;51.510;11.934;2023-10-08T04:35:25;101121.88;;;12.78;100.00
18533;BME280;9396;51.510;11.934;2023-10-08T04:37:53;101134.41;;;12.78;100.00
18533;BME280;9396;51.510;11.934;2023-10-08T04:40:21;101128.06;;;12.79;100.00
18533;BME280;9396;51.510;11.934;2023-10-08T04:42:49;101120.38;;;12.93;100.00
18533;BME280;9396;51.510;11.934;2023-10-08T04:45:17;101117.88;;;12.92;100.00
18533;BME280;9396;51.510;11.934;2023-10-08T04:47:51;101114.19;;;12.93;100.00
18533;BME280;9396;51.510;11.934;2023-10-08T04:50:19;101131.06;;;12.93;100.00
18533;BME280;9396;51.510;11.934;2023-10-08T04:52:48;101132.22;;;12.64;100.00
18533;BME280;9396;51.510;11.934;2023-10-08T04:55:23;101130.69;;;12.61;100.00
18533;BME280;9396;51.510;11.934;2023-10-08T04:57:54;101132.22;;;12.64;100.00
18533;BME280;9396;51.510;11.934;2023-10-08T05:00:21;101129.00;;;12.60;100.00
18533;BME280;9396;51.510;11.934;2023-10-08T05:03:06;101127.84;;;12.72;100.00
18533;BME280;9396;51.510;11.934;2023-10-08T05:05:39;101127.84;;;12.90;100.00
18533;BME280;9396;51.510;11.934;2023-10-08T05:08:22;101140.72;;;13.04;100.00
18533;BME280;9396;51.510;11.934;2023-10-08T05:10:54;101139.31;;;13.00;100.00
18533;BME280;9396;51.510;11.934;2023-10-08T05:13:38;101135.88;;;12.90;100.00
18533;BME280;9396;51.510;11.934;2023-10-08T05:16:20;101145.06;;;13.05;100.00
18533;BME280;9396;51.510;11.934;2023-10-08T05:19:01;101168.41;;;13.03;100.00
18533;BME280;9396;51.510;11.934;2023-10-08T05:21:50;101170.47;;;12.82;100.00
18533;BME280;9396;51.510;11.934;2023-10-08T05:24:44;101175.56;;;12.75;100.00
18533;BME280;9396;51.510;11.934;2023-10-08T05:27:30;101198.22;;;12.71;100.00
18533;BME280;9396;51.510;11.934;2023-10-08T05:30:20;101216.28;;;12.50;100.00
18533;BME280;9396;51.510;11.934;2023-10-08T05:32:54;101227.38;;;12.55;100.00
18533;BME280;9396;51.510;11.934;2023-10-08T05:35:38;101203.47;;;12.63;100.00
18533;BME280;9396;51.510;11.934;2023-10-08T05:38:21;101181.50;;;12.69;100.00
18533;BME280;9396;51.510;11.934;2023-10-08T05:41:16;101177.91;;;12.88;100.00
18533;BME280;9396;51.510;11.934;2023-10-08T05:43:59;101189.00;;;12.83;100.00
18533;BME280;9396;51.510;11.934;2023-10-08T05:46:49;101209.47;;;12.92;100.00
18533;BME280;9396;51.510;11.934;2023-10-08T05:49:32;101216.22;;;12.97;100.00
18533;BME280;9396;51.510;11.934;2023-10-08T05:52:18;101221.91;;;12.84;100.00
18533;BME280;9396;51.510;11.934;2023-10-08T05:55:07;101230.59;;;12.86;100.00
18533;BME280;9396;51.510;11.934;2023-10-08T05:57:52;101233.38;;;12.94;100.00
18533;BME280;9396;51.510;11.934;2023-10-08T06:00:28;101251.59;;;12.71;100.00
18533;BME280;9396;51.510;11.934;2023-10-08T06:03:30;101256.38;;;12.77;100.00
18533;BME280;9396;51.510;11.934;2023-10-08T06:06:03;101266.56;;;12.91;100.00
18533;BME280;9396;51.510;11.934;2023-10-08T06:08:51;101264.31;;;12.87;100.00
18533;BME280;9396;51.510;11.934;2023-10-08T06:11:18;101260.91;;;12.94;100.00
18533;BME280;9396;51.510;11.934;2023-10-08T06:14:04;101266.03;;;12.88;100.00
18533;BME280;9396;51.510;11.934;2023-10-08T06:16:39;101272.47;;;12.85;100.00
18533;BME280;9396;51.510;11.934;2023-10-08T06:19:10;101271.94;;;12.82;100.00
18533;BME280;9396;51.510;11.934;2023-10-08T06:21:37;101281.03;;;12.89;100.00
18533;BME280;9396;51.510;11.934;2023-10-08T06:24:04;101285.41;;;12.90;100.00
18533;BME280;9396;51.510;11.934;2023-10-08T06:26:35;101284.00;;;12.86;100.00
18533;BME280;9396;51.510;11.934;2023-10-08T06:29:09;101290.28;;;12.94;100.00
18533;BME280;9396;51.510;11.934;2023-10-08T06:31:51;101290.28;;;12.94;100.00
18533;BME280;9396;51.510;11.934;2023-10-08T06:34:20;101289.31;;;12.96;100.00
18533;BME280;9396;51.510;11.934;2023-10-08T06:36:48;101290.69;;;13.00;100.00
18533;BME280;9396;51.510;11.934;2023-10-08T06:39:19;101295.06;;;13.01;100.00
18533;BME280;9396;51.510;11.934;2023-10-08T06:41:51;101305.06;;;13.08;100.00
18533;BME280;9396;51.510;11.934;2023-10-08T06:44:20;101307.25;;;13.13;100.00
18533;BME280;9396;51.510;11.934;2023-10-08T06:46:47;101305.97;;;13.17;100.00
18533;BME280;9396;51.510;11.934;2023-10-08T06:49:18;101322.28;;;13.14;100.00
18533;BME280;9396;51.510;11.934;2023-10-08T06:51:49;101325.97;;;13.13;100.00
18533;BME280;9396;51.510;11.934;2023-10-08T06:54:16;101328.06;;;13.19;100.00
18533;BME280;9396;51.510;11.934;2023-10-08T06:56:43;101339.91;;;12.97;100.00
18533;BME280;9396;51.510;11.934;2023-10-08T06:59:12;101348.00;;;12.78;100.00
18533;BME280;9396;51.510;11.934;2023-10-08T07:01:40;101343.00;;;12.92;100.00
18533;BME280;9396;51.510;11.934;2023-10-08T07:04:11;101346.78;;;13.00;100.00
18533;BME280;9396;51.510;11.934;2023-10-08T07:06:38;101339.47;;;13.02;100.00
18533;BME280;9396;51.510;11.934;2023-10-08T07:09:05;101337.41;;;12.96;100.00
18533;BME280;9396;51.510;11.934;2023-10-08T07:11:47;101354.50;;;13.12;100.00
18533;BME280;9396;51.510;11.934;2023-10-08T07:14:14;101356.75;;;13.17;100.00
18533;BME280;9396;51.510;11.934;2023-10-08T07:16:42;101359.31;;;12.99;100.00
18533;BME280;9396;51.510;11.934;2023-10-08T07:19:09;101379.00;;;13.08;100.00
18533;BME280;9396;51.510;11.934;2023-10-08T07:21:44;101394.75;;;12.91;100.00
18533;BME280;9396;51.510;11.934;2023-10-08T07:24:11;101405.84;;;12.87;100.00
18533;BME280;9396;51.510;11.934;2023-10-08T07:26:40;101412.63;;;12.72;100.00
18533;BME280;9396;51.510;11.934;2023-10-08T07:29:12;101408.41;;;12.69;100.00
18533;BME280;9396;51.510;11.934;2023-10-08T07:31:44;101402.38;;;12.67;100.00
18533;BME280;9396;51.510;11.934;2023-10-08T07:34:15;101403.47;;;12.74;100.00
18533;BME280;9396;51.510;11.934;2023-10-08T07:36:44;101413.50;;;12.72;100.00
18533;BME280;9396;51.510;11.934;2023-10-08T07:39:12;101398.53;;;12.89;100.00
18533;BME280;9396;51.510;11.934;2023-10-08T07:41:50;101397.03;;;12.86;100.00
18533;BME280;9396;51.510;11.934;2023-10-08T07:44:17;101404.59;;;12.91;100.00
18533;BME280;9396;51.510;11.934;2023-10-08T07:46:48;101404.16;;;12.96;100.00
18533;BME280;9396;51.510;11.934;2023-10-08T07:49:15;101409.22;;;12.99;100.00
18533;BME280;9396;51.510;11.934;2023-10-08T07:51:42;101411.72;;;13.00;100.00
18533;BME280;9396;51.510;11.934;2023-10-08T07:54:17;101417.78;;;13.12;100.00
18533;BME280;9396;51.510;11.934;2023-10-08T07:56:45;101407.81;;;13.04;100.00
18533;BME280;9396;51.510;11.934;2023-10-08T07:59:11;101407.94;;;13.12;100.00
18533;BME280;9396;51.510;11.934;2023-10-08T08:01:40;101419.47;;;13.13;100.00
18533;BME280;9396;51.510;11.934;2023-10-08T08:04:09;101428.91;;;12.78;100.00
18533;BME280;9396;51.510;11.934;2023-10-08T08:06:40;101441.84;;;12.73;100.00
18533;BME280;9396;51.510;11.934;2023-10-08T08:09:06;101449.88;;;12.64;100.00
18533;BME280;9396;51.510;11.934;2023-10-08T08:11:43;101465.19;;;12.71;100.00
18533;BME280;9396;51.510;11.934;2023-10-08T08:14:11;101462.94;;;12.76;100.00
18533;BME280;9396;51.510;11.934;2023-10-08T08:16:42;101460.25;;;12.96;100.00
18533;BME280;9396;51.510;11.934;2023-10-08T08:19:12;101453.25;;;13.04;100.00
18533;BME280;9396;51.510;11.934;2023-10-08T08:21:41;101459.53;;;13.13;100.00
18533;BME280;9396;51.510;11.934;2023-10-08T08:24:11;101477.94;;;12.97;100.00
18533;BME280;9396;51.510;11.934;2023-10-08T08:26:38;101474.56;;;12.94;100.00
18533;BME280;9396;51.510;11.934;2023-10-08T08:29:10;101484.72;;;12.81;100.00
18533;BME280;9396;51.510;11.934;2023-10-08T08:31:40;101486.69;;;12.70;100.00
18533;BME280;9396;51.510;11.934;2023-10-08T08:34:13;101479.38;;;12.81;100.00
18533;BME280;9396;51.510;11.934;2023-10-08T08:36:45;101485.25;;;12.94;100.00
18533;BME280;9396;51.510;11.934;2023-10-08T08:39:14;101485.00;;;12.88;100.00
18533;BME280;9396;51.510;11.934;2023-10-08T08:41:56;101475.47;;;13.05;100.00
18533;BME280;9396;51.510;11.934;2023-10-08T08:44:27;101475.97;;;13.18;100.00
18533;BME280;9396;51.510;11.934;2023-10-08T08:46:57;101477.38;;;13.31;100.00
18533;BME280;9396;51.510;11.934;2023-10-08T08:49:26;101480.91;;;13.22;100.00
18533;BME280;9396;51.510;11.934;2023-10-08T08:51:55;101470.38;;;13.11;100.00
18533;BME280;9396;51.510;11.934;2023-10-08T08:54:26;101480.81;;;13.05;100.00
18533;BME280;9396;51.510;11.934;2023-10-08T08:56:56;101494.97;;;13.05;100.00
18533;BME280;9396;51.510;11.934;2023-10-08T08:59:23;101500.31;;;13.05;100.00
18533;BME280;9396;51.510;11.934;2023-10-08T09:01:50;101499.63;;;13.03;100.00
18533;BME280;9396;51.510;11.934;2023-10-08T09:04:29;101497.50;;;13.26;100.00
18533;BME280;9396;51.510;11.934;2023-10-08T09:06:58;101510.25;;;13.32;100.00
18533;BME280;9396;51.510;11.934;2023-10-08T09:09:32;101503.22;;;13.31;100.00
18533;BME280;9396;51.510;11.934;2023-10-08T09:11:59;101484.72;;;12.81;100.00
18533;BME280;9396;51.510;11.934;2023-10-08T09:14:27;101488.94;;;13.13;100.00
18533;BME280;9396;51.510;11.934;2023-10-08T09:16:57;101503.25;;;13.21;100.00
18533;BME280;9396;51.510;11.934;2023-10-08T09:19:25;101510.44;;;13.21;100.00
18533;BME280;9396;51.510;11.934;2023-10-08T09:22:03;101519.25;;;13.40;100.00
18533;BME280;9396;51.510;11.934;2023-10-08T09:24:31;101513.63;;;13.34;100.00
18533;BME280;9396;51.510;11.934;2023-10-08T09:26:59;101517.00;;;13.45;100.00
18533;BME280;9396;51.510;11.934;2023-10-08T09:29:27;101519.81;;;13.44;100.00
18533;BME280;9396;51.510;11.934;2023-10-08T09:31:55;101523.69;;;13.59;100.00
18533;BME280;9396;51.510;11.934;2023-10-08T09:34:26;101527.75;;;13.63;100.00
18533;BME280;9396;51.510;11.934;2023-10-08T09:36:55;101526.91;;;13.72;100.00
18533;BME280;9396;51.510;11.934;2023-10-08T09:39:24;101524.50;;;13.69;100.00
18533;BME280;9396;51.510;11.934;2023-10-08T09:41:53;101529.03;;;13.59;100.00
18533;BME280;9396;51.510;11.934;2023-10-08T09:44:20;101534.63;;;13.75;100.00
18533;BME280;9396;51.510;11.934;2023-10-08T09:46:52;101538.44;;;13.99;100.00
18533;BME280;9396;51.510;11.934;2023-10-08T09:49:26;101543.22;;;14.06;100.00
18533;BME280;9396;51.510;11.934;2023-10-08T09:51:58;101553.72;;;13.89;100.00
18533;BME280;9396;51.510;11.934;2023-10-08T09:54:28;101547.91;;;13.94;100.00
18533;BME280;9396;51.510;11.934;2023-10-08T09:56:58;101552.13;;;13.96;100.00
18533;BME280;9396;51.510;11.934;2023-10-08T09:59:27;101550.41;;;13.68;100.00
18533;BME280;9396;51.510;11.934;2023-10-08T10:01:54;101550.69;;;13.65;100.00
18533;BME280;9396;51.510;11.934;2023-10-08T10:04:25;101559.47;;;13.85;100.00
18533;BME280;9396;51.510;11.934;2023-10-08T10:06:54;101568.59;;;13.92;99.47
18533;BME280;9396;51.510;11.934;2023-10-08T10:09:24;101570.00;;;13.96;100.00
18533;BME280;9396;51.510;11.934;2023-10-08T10:11:54;101572.47;;;14.17;100.00
18533;BME280;9396;51.510;11.934;2023-10-08T10:14:22;101582.88;;;14.20;100.00
18533;BME280;9396;51.510;11.934;2023-10-08T10:17:08;101575.91;;;14.36;98.64
18533;BME280;9396;51.510;11.934;2023-10-08T10:19:36;101572.94;;;14.39;97.56
18533;BME280;9396;51.510;11.934;2023-10-08T10:22:03;101570.69;;;14.35;95.75
18533;BME280;9396;51.510;11.934;2023-10-08T10:24:32;101581.59;;;14.24;96.55
18533;BME280;9396;51.510;11.934;2023-10-08T10:27:12;101581.13;;;14.38;98.29
18533;BME280;9396;51.510;11.934;2023-10-08T10:29:40;101585.38;;;14.31;97.81
18533;BME280;9396;51.510;11.934;2023-10-08T10:32:10;101576.13;;;14.16;97.29
18533;BME280;9396;51.510;11.934;2023-10-08T10:34:39;101593.09;;;14.34;98.50
18533;BME280;9396;51.510;11.934;2023-10-08T10:37:07;101594.78;;;14.35;97.75
18533;BME280;9396;51.510;11.934;2023-10-08T10:39:52;101598.63;;;14.32;95.53
18533;BME280;9396;51.510;11.934;2023-10-08T10:42:22;101599.94;;;14.46;96.65
18533;BME280;9396;51.510;11.934;2023-10-08T10:44:50;101601.50;;;14.48;96.50
18533;BME280;9396;51.510;11.934;2023-10-08T10:47:19;101600.97;;;14.62;96.01
18533;BME280;9396;51.510;11.934;2023-10-08T10:49:54;101594.88;;;14.70;95.33
18533;BME280;9396;51.510;11.934;2023-10-08T10:52:42;101599.06;;;14.72;93.47
18533;BME280;9396;51.510;11.934;2023-10-08T10:55:12;101607.38;;;14.79;93.14
18533;BME280;9396;51.510;11.934;2023-10-08T10:57:58;101607.81;;;14.47;97.07
18533;BME280;9396;51.510;11.934;2023-10-08T11:00:30;101607.03;;;14.37;98.96
18533;BME280;9396;51.510;11.934;2023-10-08T11:03:14;101602.53;;;14.38;98.63
18533;BME280;9396;51.510;11.934;2023-10-08T11:05:44;101602.13;;;14.60;96.76
18533;BME280;9396;51.510;11.934;2023-10-08T11:08:15;101602.38;;;14.66;97.96
18533;BME280;9396;51.510;11.934;2023-10-08T11:10:44;101601.84;;;14.80;97.25
18533;BME280;9396;51.510;11.934;2023-10-08T11:13:18;101585.94;;;14.79;94.82
18533;BME280;9396;51.510;11.934;2023-10-08T11:15:46;101592.19;;;14.70;92.52
18533;BME280;9396;51.510;11.934;2023-10-08T11:18:18;101582.78;;;14.83;93.25
18533;BME280;9396;51.510;11.934;2023-10-08T11:20:45;101566.94;;;14.90;93.57
18533;BME280;9396;51.510;11.934;2023-10-08T11:23:31;101576.13;;;14.87;94.98
18533;BME280;9396;51.510;11.934;2023-10-08T11:26:00;101573.38;;;14.97;94.39
18533;BME280;9396;51.510;11.934;2023-10-08T11:28:30;101575.22;;;14.79;91.45
18533;BME280;9396;51.510;11.934;2023-10-08T11:30:59;101570.78;;;14.70;94.15
18533;BME280;9396;51.510;11.934;2023-10-08T11:33:34;101568.69;;;14.81;93.11
18533;BME280;9396;51.510;11.934;2023-10-08T11:36:02;101562.81;;;14.95;92.33
18533;BME280;9396;51.510;11.934;2023-10-08T11:38:38;101547.25;;;14.99;91.45
18533;BME280;9396;51.510;11.934;2023-10-08T11:41:11;101562.56;;;15.07;90.97
18533;BME280;9396;51.510;11.934;2023-10-08T11:43:48;101558.38;;;14.86;90.53
18533;BME280;9396;51.510;11.934;2023-10-08T11:46:22;101558.69;;;14.83;92.85
18533;BME280;9396;51.510;11.934;2023-10-08T11:48:51;101571.53;;;14.97;92.94
18533;BME280;9396;51.510;11.934;2023-10-08T11:51:18;101557.75;;;15.10;91.74
18533;BME280;9396;51.510;11.934;2023-10-08T11:53:49;101552.22;;;15.12;90.68
18533;BME280;9396;51.510;11.934;2023-10-08T11:56:16;101562.66;;;15.15;91.42
18533;BME280;9396;51.510;11.934;2023-10-08T11:58:48;101557.31;;;15.15;91.77
18533;BME280;9396;51.510;11.934;2023-10-08T12:01:14;101548.69;;;15.29;91.31
18533;BME280;9396;51.510;11.934;2023-10-08T12:03:43;101541.38;;;15.39;89.78
18533;BME280;9396;51.510;11.934;2023-10-08T12:06:10;101539.09;;;15.44;89.12
18533;BME280;9396;51.510;11.934;2023-10-08T12:08:41;101544.22;;;15.55;89.61
18533;BME280;9396;51.510;11.934;2023-10-08T12:11:10;101530.38;;;15.67;89.52
18533;BME280;9396;51.510;11.934;2023-10-08T12:13:37;101525.56;;;15.79;88.80
18533;BME280;9396;51.510;11.934;2023-10-08T12:16:13;101526.31;;;15.89;88.02
18533;BME280;9396;51.510;11.934;2023-10-08T12:18:46;101517.38;;;15.80;84.71
18533;BME280;9396;51.510;11.934;2023-10-08T12:21:18;101524.16;;;15.67;88.48
18533;BME280;9396;51.510;11.934;2023-10-08T12:23:45;101521.81;;;15.64;90.03
18533;BME280;9396;51.510;11.934;2023-10-08T12:26:12;101515.13;;;15.68;92.29
18533;BME280;9396;51.510;11.934;2023-10-08T12:28:41;101523.78;;;15.54;87.18
18533;BME280;9396;51.510;11.934;2023-10-08T12:31:11;101533.00;;;15.59;87.77
18533;BME280;9396;51.510;11.934;2023-10-08T12:33:38;101514.19;;;15.51;87.91
18533;BME280;9396;51.510;11.934;2023-10-08T12:36:05;101516.47;;;15.72;88.52
18533;BME280;9396;51.510;11.934;2023-10-08T12:38:37;101523.97;;;15.94;88.27
18533;BME280;9396;51.510;11.934;2023-10-08T12:41:04;101513.25;;;16.02;87.89
18533;BME280;9396;51.510;11.934;2023-10-08T12:43:37;101509.06;;;15.99;82.17
18533;BME280;9396;51.510;11.934;2023-10-08T12:46:04;101519.03;;;16.15;83.81
18533;BME280;9396;51.510;11.934;2023-10-08T12:48:37;101509.13;;;16.16;81.74
18533;BME280;9396;51.510;11.934;2023-10-08T12:51:04;101508.38;;;15.89;78.12
18533;BME280;9396;51.510;11.934;2023-10-08T12:53:32;101513.25;;;15.94;84.64
18533;BME280;9396;51.510;11.934;2023-10-08T12:56:03;101518.25;;;15.89;87.27
18533;BME280;9396;51.510;11.934;2023-10-08T12:58:33;101506.91;;;16.03;88.04
18533;BME280;9396;51.510;11.934;2023-10-08T13:01:07;101493.88;;;16.16;87.53
18533;BME280;9396;51.510;11.934;2023-10-08T13:03:36;101478.63;;;16.25;86.23
18533;BME280;9396;51.510;11.934;2023-10-08T13:06:07;101480.81;;;16.29;88.54